Time;durP1;ratioP1;P1;durP2;ratioP2;P2;SDS_P1;SDS_P2;PMS_P1;PMS_P2;Temp;Humidity;BMP_temperature;BMP_pressure;BME280_temperature;BME280_humidity;BME280_pressure;Samples;Min_cycle;Max_cycle;Signal;HPM_P1;HPM_P2
2020/12/13 00:01:37;;;;;;;48.72;29.70;;;;;;;4.97;100.00;99667.47;5216007;28;20035;-78
2020/12/13 00:04:07;;;;;;;53.38;31.00;;;;;;;4.88;100.00;99670.31;5212459;28;20446;-78
2020/12/13 00:06:37;;;;;;;52.05;30.15;;;;;;;4.84;100.00;99670.44;5215374;28;20029;-79
2020/12/13 00:09:08;;;;;;;50.65;30.20;;;;;;;4.84;100.00;99670.44;5215979;28;20481;-79
2020/12/13 00:11:39;;;;;;;50.20;29.70;;;;;;;4.95;100.00;99671.84;5211559;28;20034;-78
2020/12/13 00:14:09;;;;;;;50.08;30.02;;;;;;;4.90;100.00;99676.28;5208474;28;20533;-78
2020/12/13 00:16:39;;;;;;;48.15;29.17;;;;;;;5.00;100.00;99682.91;5214439;28;20065;-77
2020/12/13 00:19:09;;;;;;;50.53;29.38;;;;;;;4.94;100.00;99685.66;5213415;28;20044;-76
2020/12/13 00:21:40;;;;;;;50.67;29.80;;;;;;;4.91;100.00;99683.16;5211941;28;20133;-77
2020/12/13 00:24:10;;;;;;;51.90;30.30;;;;;;;4.82;100.00;99683.41;5211355;28;20283;-77
2020/12/13 00:26:41;;;;;;;55.10;30.60;;;;;;;4.98;100.00;99689.88;5212121;28;20055;-77
2020/12/13 00:29:13;;;;;;;54.40;31.70;;;;;;;4.83;100.00;99679.91;5205520;28;20033;-78
2020/12/13 00:31:43;;;;;;;58.35;32.08;;;;;;;4.85;100.00;99688.53;5204351;28;20017;-77
2020/12/13 00:34:13;;;;;;;58.13;32.70;;;;;;;4.89;100.00;99687.53;5213191;28;20029;-79
2020/12/13 00:36:44;;;;;;;59.00;31.85;;;;;;;4.85;100.00;99688.53;5211256;28;20537;-77
2020/12/13 00:39:14;;;;;;;54.47;31.38;;;;;;;4.90;100.00;99698.72;5211003;28;20049;-79
2020/12/13 00:41:51;;;;;;;55.55;32.55;;;;;;;4.91;100.00;99703.88;5201741;28;20030;-79
2020/12/13 00:44:22;;;;;;;57.95;33.08;;;;;;;4.74;100.00;99700.88;5213404;28;20071;-78
2020/12/13 00:46:53;;;;;;;58.70;33.42;;;;;;;4.71;100.00;99711.31;5214211;28;20025;-78
2020/12/13 00:49:23;;;;;;;57.80;32.20;;;;;;;4.76;100.00;99706.00;5213442;28;20032;-79
2020/12/13 00:51:59;;;;;;;61.33;34.03;;;;;;;4.71;100.00;99716.50;5214143;28;20029;-77
2020/12/13 00:54:30;;;;;;;56.72;31.35;;;;;;;4.77;100.00;99715.50;5204568;28;20021;-77
2020/12/13 00:57:00;;;;;;;58.05;32.10;;;;;;;4.77;100.00;99725.84;5204860;28;20027;-77
2020/12/13 00:59:31;;;;;;;56.53;31.60;;;;;;;4.88;100.00;99719.50;5201079;28;20025;-78
2020/12/13 01:02:01;;;;;;;52.80;30.60;;;;;;;4.97;100.00;99721.81;5212739;28;20025;-77
2020/12/13 01:04:33;;;;;;;54.20;31.17;;;;;;;4.93;100.00;99727.97;5204113;28;20087;-78
2020/12/13 01:07:03;;;;;;;53.28;30.80;;;;;;;4.91;100.00;99723.72;5209195;28;20025;-77
2020/12/13 01:09:34;;;;;;;60.45;32.25;;;;;;;4.87;100.00;99738.50;5214995;28;20669;-78
2020/12/13 01:12:05;;;;;;;59.58;32.97;;;;;;;4.77;100.00;99738.78;5214935;28;20017;-78
2020/12/13 01:14:35;;;;;;;65.30;35.15;;;;;;;4.66;100.00;99744.22;5202017;28;20045;-78
2020/12/13 01:17:09;;;;;;;67.10;34.72;;;;;;;4.57;100.00;99744.44;5199535;28;20041;-77
2020/12/13 01:19:39;;;;;;;67.55;34.80;;;;;;;4.67;100.00;99751.06;5211031;28;20036;-77
2020/12/13 01:22:09;;;;;;;62.30;33.55;;;;;;;4.80;100.00;99747.28;5204586;28;20033;-78
2020/12/13 01:24:39;;;;;;;61.38;32.60;;;;;;;4.86;100.00;99752.34;5203191;28;20028;-78
2020/12/13 01:27:10;;;;;;;59.17;32.78;;;;;;;4.90;100.00;99750.50;5204116;28;20116;-77
2020/12/13 01:29:40;;;;;;;59.40;32.97;;;;;;;4.93;100.00;99747.81;5202967;28;20429;-77
2020/12/13 01:32:10;;;;;;;63.17;32.95;;;;;;;4.70;100.00;99742.41;5203852;28;20029;-77
2020/12/13 01:34:40;;;;;;;58.70;31.85;;;;;;;4.83;100.00;99743.78;5202236;28;20021;-78
2020/12/13 01:37:11;;;;;;;62.40;33.17;;;;;;;4.81;100.00;99742.97;5202240;28;20025;-78
2020/12/13 01:39:41;;;;;;;65.45;34.30;;;;;;;4.76;100.00;99745.69;5206767;28;20486;-78
2020/12/13 01:42:11;;;;;;;65.38;33.35;;;;;;;4.74;100.00;99750.06;5206059;28;20378;-78
2020/12/13 01:44:41;;;;;;;65.35;33.88;;;;;;;4.72;100.00;99749.25;5201877;28;20027;-78
2020/12/13 01:47:12;;;;;;;61.58;33.67;;;;;;;4.76;100.00;99748.28;5202000;28;20025;-77
2020/12/13 01:49:45;;;;;;;63.55;34.42;;;;;;;4.65;100.00;99750.28;5206546;28;20547;-78
2020/12/13 01:55:09;;;;;;;64.00;34.00;;;;;;;4.77;100.00;99757.72;5210861;28;20060;-77
2020/12/13 01:57:40;;;;;;;61.97;33.13;;;;;;;4.75;100.00;99758.66;5210727;28;20033;-77
2020/12/13 02:00:13;;;;;;;63.95;34.28;;;;;;;4.85;100.00;99765.31;5210150;28;20021;-77
2020/12/13 02:02:58;;;;;;;64.25;33.08;;;;;;;4.72;100.00;99775.13;5211251;28;20036;-77
2020/12/13 02:05:30;;;;;;;61.58;33.45;;;;;;;4.92;100.00;99762.53;5211389;28;20095;-77
2020/12/13 02:08:01;;;;;;;64.05;33.55;;;;;;;4.78;100.00;99772.38;5210958;28;20196;-77
2020/12/13 02:10:33;;;;;;;61.33;32.90;;;;;;;4.76;100.00;99763.78;5217083;28;20063;-77
2020/12/13 02:13:04;;;;;;;61.95;33.30;;;;;;;4.83;100.00;99767.91;5203650;28;20025;-78
2020/12/13 02:15:34;;;;;;;61.55;32.97;;;;;;;4.77;100.00;99772.44;5212723;28;20043;-79
2020/12/13 02:18:05;;;;;;;59.80;32.15;;;;;;;4.99;100.00;99781.34;5212404;28;20059;-79
2020/12/13 02:20:35;;;;;;;63.53;32.75;;;;;;;4.88;100.00;99779.03;5208572;28;20415;-77
2020/12/13 02:23:07;;;;;;;62.17;34.03;;;;;;;4.82;100.00;99779.16;5216126;28;20116;-78
2020/12/13 02:25:37;;;;;;;65.28;33.38;;;;;;;4.85;100.00;99776.53;5217587;28;20438;-78
2020/12/13 02:28:08;;;;;;;57.88;32.05;;;;;;;4.81;100.00;99785.22;5209237;28;20040;-79
2020/12/13 02:30:39;;;;;;;58.22;32.35;;;;;;;4.83;100.00;99778.28;5210648;28;20029;-77
2020/12/13 02:33:10;;;;;;;57.22;31.92;;;;;;;4.98;100.00;99782.22;5216819;28;20630;-77
2020/12/13 02:35:40;;;;;;;58.45;31.52;;;;;;;4.82;100.00;99786.91;5217039;28;20021;-77
2020/12/13 02:38:10;;;;;;;58.95;32.30;;;;;;;4.84;100.00;99784.31;5220523;28;20048;-79
2020/12/13 02:40:40;;;;;;;59.50;32.42;;;;;;;4.75;100.00;99792.28;5224912;28;20017;-79
2020/12/13 02:43:11;;;;;;;58.35;31.10;;;;;;;4.79;100.00;99784.41;5209867;28;20159;-78
2020/12/13 02:45:41;;;;;;;59.47;32.35;;;;;;;4.77;100.00;99793.13;5210119;28;20021;-78
2020/12/13 02:48:11;;;;;;;54.35;31.38;;;;;;;4.80;100.00;99793.03;5219160;28;20032;-78
2020/12/13 02:50:42;;;;;;;57.08;30.17;;;;;;;4.83;100.00;99792.97;5219235;28;20434;-78
2020/12/13 02:53:12;;;;;;;59.85;31.33;;;;;;;4.83;100.00;99801.56;5219528;28;20089;-79
2020/12/13 02:55:42;;;;;;;54.05;30.55;;;;;;;4.81;100.00;99811.09;5212776;28;20041;-77
2020/12/13 02:58:13;;;;;;;57.42;30.90;;;;;;;4.81;100.00;99808.53;5208262;28;20027;-78
2020/12/13 03:00:43;;;;;;;54.70;30.15;;;;;;;4.79;100.00;99807.72;5207909;28;20060;-78
2020/12/13 03:03:13;;;;;;;53.88;30.38;;;;;;;4.76;100.00;99810.38;5208144;28;20471;-77
2020/12/13 03:05:43;;;;;;;54.70;31.13;;;;;;;4.85;100.00;99815.34;5209015;28;20029;-78
2020/12/13 03:08:14;;;;;;;55.33;30.52;;;;;;;4.81;100.00;99820.63;5211719;28;20035;-78
2020/12/13 03:10:44;;;;;;;60.03;32.40;;;;;;;4.65;100.00;99822.72;5214930;28;20021;-77
2020/12/13 03:13:14;;;;;;;59.30;31.63;;;;;;;4.63;100.00;99819.31;5207361;28;20028;-79
2020/12/13 03:15:44;;;;;;;60.08;32.08;;;;;;;4.68;100.00;99825.25;5208246;28;20025;-78
2020/12/13 03:18:14;;;;;;;62.85;32.58;;;;;;;4.80;100.00;99822.34;5208059;28;20112;-77
2020/12/13 03:20:45;;;;;;;61.17;31.90;;;;;;;4.76;100.00;99830.22;5207517;28;20029;-78
2020/12/13 03:23:15;;;;;;;58.17;31.50;;;;;;;4.71;100.00;99830.34;5208004;28;20037;-78
2020/12/13 03:25:45;;;;;;;58.22;31.75;;;;;;;4.76;100.00;99827.63;5206330;28;20040;-78
2020/12/13 03:28:16;;;;;;;59.80;31.25;;;;;;;4.66;100.00;99827.00;5205849;28;20065;-77
2020/12/13 03:30:46;;;;;;;59.33;30.73;;;;;;;4.84;100.00;99823.13;5205828;28;20017;-77
2020/12/13 03:33:16;;;;;;;59.75;32.38;;;;;;;4.65;100.00;99830.47;5212546;28;20040;-77
2020/12/13 03:35:47;;;;;;;63.10;33.03;;;;;;;4.71;100.00;99824.31;5212475;28;20371;-76
2020/12/13 03:38:17;;;;;;;64.10;33.30;;;;;;;4.60;100.00;99827.16;5209099;28;20490;-77
2020/12/13 03:40:47;;;;;;;62.78;31.90;;;;;;;4.69;100.00;99819.19;5202069;28;20064;-78
2020/12/13 03:43:17;;;;;;;58.67;32.55;;;;;;;4.62;100.00;99819.38;5203949;28;20030;-77
2020/12/13 03:45:48;;;;;;;60.05;31.70;;;;;;;4.63;100.00;99816.72;5213282;28;20056;-77
2020/12/13 03:48:18;;;;;;;59.03;31.90;;;;;;;4.75;100.00;99816.44;5215244;28;20051;-78
2020/12/13 03:50:48;;;;;;;58.10;30.95;;;;;;;4.63;100.00;99821.91;5215071;28;20049;-79
2020/12/13 03:53:19;;;;;;;59.67;31.77;;;;;;;4.71;100.00;99829.50;5215010;28;20022;-79
2020/12/13 03:55:49;;;;;;;56.85;31.52;;;;;;;4.73;100.00;99828.56;5214269;28;20104;-78
2020/12/13 03:58:19;;;;;;;60.30;31.27;;;;;;;4.67;100.00;99828.69;5199204;28;20025;-77
2020/12/13 04:00:49;;;;;;;55.55;29.95;;;;;;;4.78;100.00;99829.31;5210688;28;20021;-78
2020/12/13 04:03:20;;;;;;;54.70;29.73;;;;;;;4.80;100.00;99829.28;5213172;28;20036;-77
2020/12/13 04:05:50;;;;;;;56.92;30.55;;;;;;;4.82;100.00;99832.69;5212993;28;20030;-77
2020/12/13 04:08:20;;;;;;;56.95;31.30;;;;;;;4.85;100.00;99838.63;5213718;28;20025;-78
2020/12/13 04:10:50;;;;;;;60.20;32.30;;;;;;;4.79;100.00;99840.53;5210074;28;20133;-78
2020/12/13 04:13:21;;;;;;;59.92;32.25;;;;;;;4.73;100.00;99838.94;5204271;28;20030;-79
2020/12/13 04:15:51;;;;;;;54.08;30.50;;;;;;;4.80;100.00;99844.81;5212559;28;20172;-78
2020/12/13 04:18:21;;;;;;;58.58;30.20;;;;;;;4.87;100.00;99854.13;5210826;28;20205;-77
2020/12/13 04:20:52;;;;;;;53.53;30.27;;;;;;;4.87;100.00;99862.75;5205336;28;20036;-77
2020/12/13 04:23:22;;;;;;;56.63;29.63;;;;;;;4.97;100.00;99871.97;5205245;28;20415;-77
2020/12/13 04:25:52;;;;;;;52.80;29.33;;;;;;;5.09;100.00;99869.09;5211638;28;20123;-78
2020/12/13 04:28:23;;;;;;;50.88;29.02;;;;;;;4.93;100.00;99870.34;5203990;28;20305;-78
2020/12/13 04:30:53;;;;;;;58.47;30.88;;;;;;;4.86;100.00;99876.56;5203613;28;20033;-78
2020/12/13 04:33:23;;;;;;;51.47;30.13;;;;;;;4.82;100.00;99885.28;5204606;28;20102;-79
2020/12/13 04:35:54;;;;;;;56.97;31.48;;;;;;;4.79;100.00;99887.94;5204210;28;20480;-78
2020/12/13 04:38:24;;;;;;;57.40;31.92;;;;;;;4.82;100.00;99890.44;5207526;28;20102;-77
2020/12/13 04:40:54;;;;;;;60.72;32.50;;;;;;;4.76;100.00;99890.59;5200248;28;20017;-77
2020/12/13 04:43:24;;;;;;;55.10;31.58;;;;;;;4.66;100.00;99894.28;5208541;28;20081;-78
2020/12/13 04:45:56;;;;;;;57.05;31.92;;;;;;;4.64;100.00;99885.69;5213393;28;20109;-78
2020/12/13 04:48:26;;;;;;;56.28;32.45;;;;;;;4.65;100.00;99884.81;5206157;28;20025;-78
2020/12/13 04:50:58;;;;;;;57.55;32.50;;;;;;;4.75;100.00;99888.03;5203583;28;20083;-78
2020/12/13 04:53:28;;;;;;;56.10;31.60;;;;;;;4.68;100.00;99887.34;5202878;28;20036;-78
2020/12/13 04:55:59;;;;;;;58.38;31.98;;;;;;;4.67;100.00;99895.16;5204747;28;20029;-77
2020/12/13 04:58:30;;;;;;;56.22;31.52;;;;;;;4.78;100.00;99899.19;5204685;28;20033;-77
2020/12/13 05:01:02;;;;;;;57.17;31.63;;;;;;;4.87;100.00;99909.34;5203973;28;20489;-78
2020/12/13 05:03:34;;;;;;;57.92;31.05;;;;;;;4.74;100.00;99901.88;5209768;28;20032;-77
2020/12/13 05:06:04;;;;;;;60.67;33.70;;;;;;;4.90;100.00;99904.09;5212556;28;20025;-77
2020/12/13 05:08:35;;;;;;;62.53;33.13;;;;;;;4.90;100.00;99905.81;5215882;28;20082;-77
2020/12/13 05:11:05;;;;;;;66.25;34.50;;;;;;;4.82;100.00;99905.16;5214562;28;20053;-77
2020/12/13 05:13:38;;;;;;;68.18;34.63;;;;;;;4.75;100.00;99904.44;5203689;28;20021;-77
2020/12/13 05:16:09;;;;;;;69.22;35.28;;;;;;;4.80;100.00;99902.59;5204545;28;20030;-78
2020/12/13 05:18:40;;;;;;;73.43;37.70;;;;;;;4.66;100.00;99901.22;5203684;28;20433;-77
2020/12/13 05:21:11;;;;;;;73.00;36.90;;;;;;;4.58;100.00;99903.97;5204136;28;20025;-77
2020/12/13 05:23:44;;;;;;;75.95;37.13;;;;;;;4.69;100.00;99902.00;5208820;28;20036;-78
2020/12/13 05:26:16;;;;;;;69.25;35.58;;;;;;;4.72;100.00;99909.69;5208981;28;20072;-76
2020/12/13 05:28:49;;;;;;;70.05;36.95;;;;;;;4.80;100.00;99910.34;5209899;28;20026;-79
2020/12/13 05:31:23;;;;;;;67.10;35.50;;;;;;;4.65;100.00;99915.88;5212135;28;20022;-79
2020/12/13 05:34:04;;;;;;;69.45;37.38;;;;;;;4.79;100.00;99919.00;5211443;28;20081;-78
2020/12/13 05:36:39;;;;;;;69.90;36.38;;;;;;;4.75;100.00;99919.97;5204689;28;20690;-77
2020/12/13 05:39:09;;;;;;;69.95;36.33;;;;;;;4.71;100.00;99920.94;5211188;28;20049;-78
2020/12/13 05:41:40;;;;;;;69.07;35.92;;;;;;;4.84;100.00;99924.91;5216958;28;20638;-79
2020/12/13 05:45:20;;;;;;;74.35;35.75;;;;;;;4.86;100.00;99911.94;5212372;28;20048;-78
2020/12/13 05:47:19;;;;;;;74.55;36.30;;;;;;;4.79;100.00;99915.56;5212232;28;20037;-79
2020/12/13 05:52:26;;;;;;;74.38;36.65;;;;;;;4.80;100.00;99925.88;5202772;28;20206;-78
2020/12/13 05:54:58;;;;;;;70.97;36.60;;;;;;;4.82;100.00;99924.09;5201426;28;20104;-77
2020/12/13 05:57:30;;;;;;;68.07;35.80;;;;;;;4.66;100.00;99925.31;5202741;28;20036;-77
2020/12/13 06:00:00;;;;;;;72.95;36.35;;;;;;;4.77;100.00;99923.34;5212392;28;20025;-79
2020/12/13 06:02:31;;;;;;;68.28;35.85;;;;;;;4.77;100.00;99925.13;5212453;28;20021;-79
2020/12/13 06:05:05;;;;;;;71.30;36.15;;;;;;;4.80;100.00;99928.47;5211532;28;20097;-79
2020/12/13 06:07:35;;;;;;;72.63;36.28;;;;;;;4.82;100.00;99926.69;5212578;28;20403;-78
2020/12/13 06:10:06;;;;;;;68.32;34.90;;;;;;;4.69;100.00;99930.47;5200630;28;20029;-78
2020/12/13 06:12:38;;;;;;;73.50;35.45;;;;;;;4.67;100.00;99932.19;5214437;28;20033;-79
2020/12/13 06:15:10;;;;;;;73.53;37.85;;;;;;;4.72;100.00;99937.28;5213225;28;20381;-78
2020/12/13 06:17:41;;;;;;;73.40;37.13;;;;;;;4.72;100.00;99945.06;5203205;28;20045;-77
2020/12/13 06:20:11;;;;;;;70.30;37.38;;;;;;;4.75;100.00;99939.78;5201775;28;20105;-78
2020/12/13 06:22:44;;;;;;;72.07;36.95;;;;;;;4.90;100.00;99948.09;5202585;28;20057;-78
2020/12/13 06:25:16;;;;;;;71.97;36.95;;;;;;;4.86;100.00;99946.47;5203410;28;20029;-77
2020/12/13 06:27:51;;;;;;;73.35;35.78;;;;;;;4.77;100.00;99948.41;5203429;28;20037;-77
2020/12/13 06:30:21;;;;;;;75.55;36.08;;;;;;;4.75;100.00;99953.59;5208428;28;20025;-77
2020/12/13 06:32:51;;;;;;;74.88;36.83;;;;;;;4.72;100.00;99945.91;5211388;28;20051;-79
2020/12/13 06:35:22;;;;;;;74.35;37.55;;;;;;;4.67;100.00;99952.06;5213314;28;20510;-79
2020/12/13 06:37:53;;;;;;;78.00;37.80;;;;;;;4.62;100.00;99939.22;5212034;28;20037;-79
2020/12/13 06:40:24;;;;;;;79.22;38.25;;;;;;;4.60;100.00;99947.94;5219122;28;20425;-78
2020/12/13 06:42:55;;;;;;;77.97;37.75;;;;;;;4.67;100.00;99957.25;5202879;28;20032;-78
2020/12/13 06:45:25;;;;;;;76.63;37.70;;;;;;;4.62;100.00;99961.69;5212101;28;20033;-78
2020/12/13 06:47:56;;;;;;;77.43;38.95;;;;;;;4.56;100.00;99965.25;5208176;28;20025;-77
2020/12/13 06:50:26;;;;;;;77.22;38.22;;;;;;;4.66;100.00;99965.91;5201634;28;20387;-77
2020/12/13 06:52:56;;;;;;;74.78;38.72;;;;;;;4.57;100.00;99966.06;5202234;28;20091;-78
2020/12/13 06:55:32;;;;;;;78.82;39.00;;;;;;;4.72;100.00;99971.78;5201355;28;20483;-77
2020/12/13 06:58:03;;;;;;;74.45;38.33;;;;;;;4.74;100.00;99970.03;5203421;28;20026;-79
2020/12/13 07:00:49;;;;;;;76.78;38.15;;;;;;;4.70;100.00;99981.31;5204753;28;20199;-77
2020/12/13 07:03:26;;;;;;;80.55;39.58;;;;;;;4.61;100.00;99981.50;5206308;28;20021;-77
2020/12/13 07:05:58;;;;;;;82.93;40.55;;;;;;;4.55;100.00;99978.19;5211953;28;20097;-77
2020/12/13 07:08:29;;;;;;;84.90;40.42;;;;;;;4.66;100.00;99995.19;5217485;28;20025;-77
2020/12/13 07:11:00;;;;;;;86.90;41.05;;;;;;;4.57;100.00;99986.78;5217715;28;20022;-77
2020/12/13 07:13:32;;;;;;;87.28;40.67;;;;;;;4.63;100.00;99991.84;5213979;28;20025;-79
2020/12/13 07:16:12;;;;;;;86.88;40.55;;;;;;;4.67;100.00;99991.72;5188834;28;20112;-78
2020/12/13 07:18:46;;;;;;;80.28;39.40;;;;;;;4.68;100.00;99996.03;5186036;28;20468;-77
2020/12/13 07:21:16;;;;;;;81.63;39.47;;;;;;;4.64;100.00;99996.97;5185039;28;20040;-78
2020/12/13 07:23:46;;;;;;;78.97;38.40;;;;;;;4.58;100.00;99999.69;5185053;28;20329;-78
2020/12/13 07:26:18;;;;;;;82.18;39.63;;;;;;;4.55;100.00;99999.75;5191177;28;20039;-77
2020/12/13 07:28:50;;;;;;;86.25;39.65;;;;;;;4.54;100.00;100003.22;5206164;28;20144;-78
2020/12/13 07:31:22;;;;;;;84.63;39.55;;;;;;;4.68;100.00;100011.56;5205707;28;20021;-79
2020/12/13 07:33:52;;;;;;;81.93;38.78;;;;;;;4.68;100.00;100013.28;5211514;28;20086;-77
2020/12/13 07:36:23;;;;;;;85.97;37.88;;;;;;;4.62;100.00;100016.00;5210613;28;20487;-79
2020/12/13 07:38:54;;;;;;;86.95;40.75;;;;;;;4.51;100.00;100017.97;5209672;28;20029;-80
2020/12/13 07:41:25;;;;;;;80.25;39.58;;;;;;;4.50;100.00;100017.09;5214242;28;20025;-79
2020/12/13 07:44:07;;;;;;;84.85;40.13;;;;;;;4.57;100.00;100029.03;5208997;28;20029;-80
2020/12/13 07:46:39;;;;;;;87.70;39.88;;;;;;;4.55;100.00;100029.94;5209934;28;20035;-78
2020/12/13 07:49:14;;;;;;;85.85;40.85;;;;;;;4.56;100.00;100042.00;5209231;28;20033;-78
2020/12/13 07:51:47;;;;;;;86.68;40.47;;;;;;;4.51;100.00;100034.34;5209835;28;20017;-80
2020/12/13 07:54:22;;;;;;;84.97;38.80;;;;;;;4.56;100.00;100035.09;5209324;28;20043;-80
2020/12/13 07:56:56;;;;;;;83.93;39.80;;;;;;;4.53;100.00;100042.94;5213810;28;20059;-79
2020/12/13 07:59:28;;;;;;;90.15;40.03;;;;;;;4.54;100.00;100049.81;5208621;28;20132;-79
2020/12/13 08:01:58;;;;;;;81.68;39.58;;;;;;;4.60;100.00;100041.06;5218127;28;20086;-79
2020/12/13 08:04:40;;;;;;;84.65;39.95;;;;;;;4.58;100.00;100048.84;5218092;28;20024;-78
2020/12/13 08:07:11;;;;;;;80.47;39.22;;;;;;;4.70;100.00;100051.19;5223347;28;20029;-78
2020/12/13 08:09:42;;;;;;;80.82;39.80;;;;;;;4.68;100.00;100046.94;5202551;28;20029;-80
2020/12/13 08:12:13;;;;;;;84.13;39.85;;;;;;;4.72;100.00;100056.31;5208921;28;20442;-79
2020/12/13 08:14:48;;;;;;;82.93;39.70;;;;;;;4.68;100.00;100052.97;5208748;28;20021;-78
2020/12/13 08:17:18;;;;;;;78.85;38.40;;;;;;;4.75;100.00;100057.13;5248428;22;20019;-81
2020/12/13 08:19:51;;;;;;;81.93;39.47;;;;;;;4.83;100.00;100052.63;5266426;28;20044;-78
2020/12/13 08:22:26;;;;;;;81.38;39.13;;;;;;;4.79;100.00;100056.16;5266679;28;20032;-79
2020/12/13 08:25:03;;;;;;;76.18;38.75;;;;;;;4.79;100.00;100056.16;5266703;28;20032;-79
2020/12/13 08:27:39;;;;;;;79.72;38.88;;;;;;;4.77;100.00;100060.53;5266348;28;20062;-83
2020/12/13 08:30:10;;;;;;;77.25;39.70;;;;;;;4.77;100.00;100065.72;5266729;28;20026;-78
2020/12/13 08:32:40;;;;;;;85.95;40.35;;;;;;;4.77;100.00;100070.88;5266319;28;20114;-80
2020/12/13 08:35:12;;;;;;;79.80;39.40;;;;;;;4.73;100.00;100066.66;5266312;28;20074;-78
2020/12/13 08:38:00;;;;;;;88.57;40.78;;;;;;;4.72;100.00;100071.84;5266588;28;20039;-80
2020/12/13 08:40:37;;;;;;;81.35;39.90;;;;;;;4.83;100.00;100078.50;5266084;28;20043;-80
2020/12/13 08:43:10;;;;;;;86.88;40.17;;;;;;;4.80;100.00;100078.56;5265999;28;20031;-77
2020/12/13 08:45:41;;;;;;;88.88;40.03;;;;;;;4.70;100.00;100074.50;5265662;28;20107;-81
2020/12/13 08:48:11;;;;;;;88.72;40.92;;;;;;;4.63;100.00;100075.47;5263090;28;20098;-81
2020/12/13 08:50:42;;;;;;;93.10;41.95;;;;;;;4.64;100.00;100087.53;5264364;28;20081;-81
2020/12/13 08:53:23;;;;;;;90.05;40.97;;;;;;;4.77;100.00;100086.41;5265548;28;20672;-80
2020/12/13 08:56:02;;;;;;;93.32;42.40;;;;;;;4.65;100.00;100084.06;5265849;28;20027;-78
2020/12/13 08:58:49;;;;;;;91.70;41.67;;;;;;;4.70;100.00;100092.59;5265459;28;20529;-81
2020/12/13 09:01:23;;;;;;;92.72;42.13;;;;;;;4.73;100.00;100092.53;5265878;28;20024;-78
2020/12/13 09:03:55;;;;;;;90.18;41.33;;;;;;;4.82;100.00;100102.69;5265477;28;20024;-78
2020/12/13 09:06:33;;;;;;;92.13;42.33;;;;;;;4.80;100.00;100112.22;5265968;28;20028;-80
2020/12/13 09:09:13;;;;;;;92.43;42.63;;;;;;;4.65;100.00;100109.94;5265937;28;20055;-81
2020/12/13 09:11:44;;;;;;;97.75;43.47;;;;;;;4.77;100.00;100114.88;5265060;28;20039;-78
2020/12/13 09:14:34;;;;;;;92.68;42.38;;;;;;;4.78;100.00;100119.16;5265161;28;20019;-78
2020/12/13 09:17:04;;;;;;;95.32;41.78;;;;;;;4.81;100.00;100126.03;5265166;28;20074;-77
2020/12/13 09:19:47;;;;;;;95.78;41.65;;;;;;;4.77;100.00;100125.22;5265509;28;20139;-78
2020/12/13 09:22:20;;;;;;;89.28;42.15;;;;;;;4.78;100.00;100129.53;5265713;28;20424;-78
2020/12/13 09:24:50;;;;;;;94.25;42.47;;;;;;;4.85;100.00;100131.13;5250951;28;20024;-78
2020/12/13 09:27:23;;;;;;;95.28;42.33;;;;;;;4.85;100.00;100133.72;5258643;28;20028;-78
2020/12/13 09:29:56;;;;;;;89.30;41.33;;;;;;;4.83;100.00;100132.88;5264240;28;20020;-80
2020/12/13 09:32:26;;;;;;;92.97;42.92;;;;;;;4.83;100.00;100137.22;5264876;28;20413;-78
2020/12/13 09:34:57;;;;;;;91.43;41.67;;;;;;;4.87;100.00;100137.13;5261970;28;20040;-81
2020/12/13 09:37:28;;;;;;;88.72;41.10;;;;;;;4.94;100.00;100143.88;5264025;28;20019;-79
2020/12/13 09:39:58;;;;;;;85.15;40.70;;;;;;;4.85;100.00;100138.91;5264218;28;20027;-80
2020/12/13 09:42:28;;;;;;;88.82;41.22;;;;;;;4.86;100.00;100143.19;5264706;28;20031;-80
2020/12/13 09:44:58;;;;;;;87.63;41.17;;;;;;;4.98;100.00;100137.75;5260088;28;20172;-80
2020/12/13 09:47:29;;;;;;;85.88;40.45;;;;;;;4.97;100.00;100133.44;5260080;28;20499;-78
2020/12/13 09:49:59;;;;;;;83.80;39.85;;;;;;;4.92;100.00;100135.28;5264693;28;20028;-80
2020/12/13 09:52:31;;;;;;;83.03;40.13;;;;;;;4.96;100.00;100142.09;5263831;28;20024;-79
2020/12/13 09:55:02;;;;;;;77.32;38.83;;;;;;;4.95;100.00;100139.56;5264706;28;20530;-78
2020/12/13 09:57:33;;;;;;;81.97;40.15;;;;;;;5.07;100.00;100142.75;5262222;28;20032;-80
2020/12/13 10:00:05;;;;;;;86.43;40.47;;;;;;;5.03;100.00;100142.84;5264361;28;20629;-78
2020/12/13 10:02:35;;;;;;;81.72;40.78;;;;;;;5.04;100.00;100144.53;5264771;28;20481;-79
2020/12/13 10:05:10;;;;;;;81.20;39.17;;;;;;;4.96;100.00;100141.28;5262526;28;20036;-78
2020/12/13 10:10:16;;;;;;;81.65;39.20;;;;;;;5.09;100.00;100142.69;5263782;28;20024;-78
2020/12/13 10:12:46;;;;;;;77.30;38.55;;;;;;;5.08;100.00;100147.03;5250035;28;20040;-79
2020/12/13 10:15:17;;;;;;;80.78;38.03;;;;;;;5.11;100.00;100153.91;5264538;28;20133;-78
2020/12/13 10:17:47;;;;;;;76.32;38.05;;;;;;;5.15;100.00;100158.13;5264456;28;20381;-78
2020/12/13 10:20:17;;;;;;;73.50;36.28;;;;;;;5.13;100.00;100150.38;5263734;28;20024;-80
2020/12/13 10:22:48;;;;;;;71.00;36.92;;;;;;;5.28;100.00;100150.06;5264803;28;20144;-81
2020/12/13 10:25:19;;;;;;;79.97;40.53;;;;;;;5.17;100.00;100154.59;5264640;28;20031;-80
2020/12/13 10:27:49;;;;;;;74.90;38.17;;;;;;;5.26;100.00;100162.19;5264246;28;20416;-78
2020/12/13 10:30:19;;;;;;;87.22;39.08;;;;;;;5.27;100.00;100153.53;5264714;28;20024;-78
2020/12/13 10:32:50;;;;;;;73.05;37.38;;;;;;;5.32;100.00;100149.09;5264609;28;20055;-79
2020/12/13 10:35:20;;;;;;;73.63;37.88;;;;;;;5.18;100.00;100161.50;5265602;28;20020;-79
2020/12/13 10:37:50;;;;;;;76.05;38.35;;;;;;;5.26;100.00;100157.03;5254690;28;20362;-80
2020/12/13 10:40:21;;;;;;;74.72;38.03;;;;;;;5.33;100.00;100157.75;5261241;28;20017;-79
2020/12/13 10:42:51;;;;;;;72.28;37.53;;;;;;;5.24;100.00;100161.38;5266456;28;20119;-81
2020/12/13 10:45:21;;;;;;;72.03;36.67;;;;;;;5.19;100.00;100149.41;5266899;28;20099;-79
2020/12/13 10:47:51;;;;;;;76.18;38.38;;;;;;;5.22;100.00;100155.38;5267009;28;20039;-78
2020/12/13 10:50:22;;;;;;;76.50;37.80;;;;;;;5.22;100.00;100160.56;5260301;28;20028;-79
2020/12/13 10:52:55;;;;;;;75.60;38.55;;;;;;;5.18;100.00;100163.25;5264823;28;20035;-80
2020/12/13 10:55:26;;;;;;;77.88;40.03;;;;;;;5.23;100.00;100161.41;5257865;28;20115;-79
2020/12/13 10:57:56;;;;;;;80.57;39.08;;;;;;;5.23;100.00;100167.44;5264950;28;20111;-78
2020/12/13 11:00:26;;;;;;;75.70;38.20;;;;;;;5.28;100.00;100168.19;5264591;28;20027;-80
2020/12/13 11:02:57;;;;;;;84.05;39.58;;;;;;;5.18;100.00;100156.31;5266835;28;20564;-78
2020/12/13 11:05:27;;;;;;;78.32;39.38;;;;;;;5.31;100.00;100154.34;5251784;28;20489;-77
2020/12/13 11:07:57;;;;;;;79.28;40.30;;;;;;;5.36;100.00;100153.31;5262089;28;20039;-78
2020/12/13 11:10:28;;;;;;;79.85;38.40;;;;;;;5.43;100.00;100154.94;5261121;28;20692;-78
2020/12/13 11:12:59;;;;;;;75.63;37.90;;;;;;;5.43;100.00;100167.88;5258401;28;20085;-78
2020/12/13 11:15:30;;;;;;;76.38;38.65;;;;;;;5.33;100.00;100155.16;5266131;28;20052;-78
2020/12/13 11:18:00;;;;;;;76.75;38.63;;;;;;;5.44;100.00;100161.81;5266248;28;20032;-78
2020/12/13 11:20:30;;;;;;;83.03;40.03;;;;;;;5.49;100.00;100170.31;5262754;28;20437;-78
2020/12/13 11:23:02;;;;;;;77.40;38.92;;;;;;;5.44;100.00;100167.00;5250655;28;20024;-78
2020/12/13 11:25:32;;;;;;;77.57;38.60;;;;;;;5.62;100.00;100170.03;5252078;28;20090;-78
2020/12/13 11:28:05;;;;;;;74.40;38.70;;;;;;;5.49;100.00;100170.31;5258947;28;20039;-78
2020/12/13 11:30:35;;;;;;;86.47;40.33;;;;;;;5.53;100.00;100159.88;5256215;28;20020;-78
2020/12/13 11:33:05;;;;;;;81.68;41.22;;;;;;;5.43;100.00;100171.31;5257952;28;20048;-77
2020/12/13 11:35:36;;;;;;;81.13;39.05;;;;;;;5.59;100.00;100170.09;5243971;28;20032;-78
2020/12/13 11:38:06;;;;;;;82.00;39.90;;;;;;;5.61;100.00;100163.13;5253795;28;20488;-78
2020/12/13 11:40:37;;;;;;;86.90;40.53;;;;;;;5.69;100.00;100165.56;5263506;28;20024;-77
2020/12/13 11:43:07;;;;;;;82.97;40.25;;;;;;;5.69;100.00;100165.56;5258982;28;20020;-78